sensor_id;sensor_type;location;lat;lon;timestamp;P1;durP1;ratioP1;P2;durP2;ratioP2
82005;SDS011;71529;47.484;19.064;2023-07-29T00:01:01;3.60;;;3.03;;
82005;SDS011;71529;47.484;19.064;2023-07-29T00:03:30;8.13;;;3.33;;
82005;SDS011;71529;47.484;19.064;2023-07-29T00:05:58;4.85;;;3.47;;
82005;SDS011;71529;47.484;19.064;2023-07-29T00:08:26;9.38;;;3.80;;
82005;SDS011;71529;47.484;19.064;2023-07-29T00:10:54;4.80;;;3.22;;
82005;SDS011;71529;47.484;19.064;2023-07-29T00:13:22;5.68;;;3.17;;
82005;SDS011;71529;47.484;19.064;2023-07-29T00:15:53;4.32;;;2.85;;
82005;SDS011;71529;47.484;19.064;2023-07-29T00:18:23;6.07;;;3.85;;
82005;SDS011;71529;47.484;19.064;2023-07-29T00:20:50;4.55;;;3.20;;
82005;SDS011;71529;47.484;19.064;2023-07-29T00:23:18;3.53;;;3.22;;
82005;SDS011;71529;47.484;19.064;2023-07-29T00:25:48;5.18;;;4.05;;
82005;SDS011;71529;47.484;19.064;2023-07-29T00:28:16;4.32;;;2.92;;
82005;SDS011;71529;47.484;19.064;2023-07-29T00:30:48;4.10;;;3.40;;
82005;SDS011;71529;47.484;19.064;2023-07-29T00:33:16;3.78;;;2.70;;
82005;SDS011;71529;47.484;19.064;2023-07-29T00:35:47;3.28;;;2.92;;
82005;SDS011;71529;47.484;19.064;2023-07-29T00:38:16;3.13;;;2.72;;
82005;SDS011;71529;47.484;19.064;2023-07-29T00:40:44;4.75;;;3.10;;
82005;SDS011;71529;47.484;19.064;2023-07-29T00:43:12;3.22;;;2.70;;
82005;SDS011;71529;47.484;19.064;2023-07-29T00:45:40;2.80;;;2.40;;
82005;SDS011;71529;47.484;19.064;2023-07-29T00:48:10;5.43;;;2.92;;
82005;SDS011;71529;47.484;19.064;2023-07-29T00:50:38;3.95;;;2.58;;
82005;SDS011;71529;47.484;19.064;2023-07-29T00:53:08;3.50;;;2.90;;
82005;SDS011;71529;47.484;19.064;2023-07-29T00:55:36;3.72;;;2.88;;
82005;SDS011;71529;47.484;19.064;2023-07-29T00:58:04;4.22;;;3.20;;
82005;SDS011;71529;47.484;19.064;2023-07-29T01:00:32;6.15;;;3.30;;
82005;SDS011;71529;47.484;19.064;2023-07-29T01:03:01;4.30;;;2.90;;
82005;SDS011;71529;47.484;19.064;2023-07-29T01:05:36;3.25;;;2.65;;
82005;SDS011;71529;47.484;19.064;2023-07-29T01:08:16;4.32;;;2.63;;
82005;SDS011;71529;47.484;19.064;2023-07-29T01:10:51;3.72;;;2.78;;
82005;SDS011;71529;47.484;19.064;2023-07-29T01:13:27;4.22;;;2.70;;
82005;SDS011;71529;47.484;19.064;2023-07-29T01:16:00;5.82;;;3.65;;
82005;SDS011;71529;47.484;19.064;2023-07-29T01:18:32;4.68;;;2.55;;
82005;SDS011;71529;47.484;19.064;2023-07-29T01:21:04;3.78;;;3.00;;
82005;SDS011;71529;47.484;19.064;2023-07-29T01:23:36;8.30;;;4.43;;
82005;SDS011;71529;47.484;19.064;2023-07-29T01:26:04;5.95;;;3.90;;
82005;SDS011;71529;47.484;19.064;2023-07-29T01:28:32;11.82;;;4.28;;
82005;SDS011;71529;47.484;19.064;2023-07-29T01:31:02;8.10;;;4.60;;
82005;SDS011;71529;47.484;19.064;2023-07-29T01:33:35;5.38;;;3.55;;
82005;SDS011;71529;47.484;19.064;2023-07-29T01:38:41;4.50;;;4.03;;
82005;SDS011;71529;47.484;19.064;2023-07-29T01:41:11;6.63;;;3.05;;
82005;SDS011;71529;47.484;19.064;2023-07-29T01:43:39;5.47;;;3.38;;
82005;SDS011;71529;47.484;19.064;2023-07-29T01:46:11;4.88;;;3.33;;
82005;SDS011;71529;47.484;19.064;2023-07-29T01:48:39;6.88;;;2.90;;
82005;SDS011;71529;47.484;19.064;2023-07-29T01:51:07;6.07;;;3.35;;
82005;SDS011;71529;47.484;19.064;2023-07-29T01:53:35;4.78;;;3.22;;
82005;SDS011;71529;47.484;19.064;2023-07-29T01:56:05;10.93;;;3.38;;
82005;SDS011;71529;47.484;19.064;2023-07-29T01:58:33;7.30;;;3.30;;
82005;SDS011;71529;47.484;19.064;2023-07-29T02:01:01;3.83;;;3.00;;
82005;SDS011;71529;47.484;19.064;2023-07-29T02:03:29;5.68;;;2.95;;
82005;SDS011;71529;47.484;19.064;2023-07-29T02:05:57;4.07;;;3.05;;
82005;SDS011;71529;47.484;19.064;2023-07-29T02:08:25;4.63;;;3.17;;
82005;SDS011;71529;47.484;19.064;2023-07-29T02:10:53;4.93;;;3.00;;
82005;SDS011;71529;47.484;19.064;2023-07-29T02:13:22;2.92;;;2.63;;
82005;SDS011;71529;47.484;19.064;2023-07-29T02:15:50;3.20;;;2.60;;
82005;SDS011;71529;47.484;19.064;2023-07-29T02:18:19;4.60;;;3.20;;
82005;SDS011;71529;47.484;19.064;2023-07-29T02:20:47;4.25;;;2.97;;
82005;SDS011;71529;47.484;19.064;2023-07-29T02:23:16;6.35;;;2.83;;
82005;SDS011;71529;47.484;19.064;2023-07-29T02:25:44;4.03;;;2.75;;
82005;SDS011;71529;47.484;19.064;2023-07-29T02:28:12;7.47;;;3.08;;
82005;SDS011;71529;47.484;19.064;2023-07-29T02:30:42;5.10;;;3.30;;
82005;SDS011;71529;47.484;19.064;2023-07-29T02:33:11;5.68;;;4.10;;
82005;SDS011;71529;47.484;19.064;2023-07-29T02:35:40;6.78;;;3.97;;
82005;SDS011;71529;47.484;19.064;2023-07-29T02:38:08;6.18;;;4.13;;
82005;SDS011;71529;47.484;19.064;2023-07-29T02:40:37;10.63;;;3.95;;
82005;SDS011;71529;47.484;19.064;2023-07-29T02:43:05;4.07;;;3.10;;
82005;SDS011;71529;47.484;19.064;2023-07-29T02:45:33;8.43;;;3.10;;
82005;SDS011;71529;47.484;19.064;2023-07-29T02:48:02;15.13;;;3.42;;
82005;SDS011;71529;47.484;19.064;2023-07-29T02:50:31;4.38;;;3.53;;
82005;SDS011;71529;47.484;19.064;2023-07-29T02:52:58;4.13;;;3.10;;
82005;SDS011;71529;47.484;19.064;2023-07-29T02:55:27;5.00;;;3.42;;
82005;SDS011;71529;47.484;19.064;2023-07-29T02:57:55;4.05;;;3.03;;
82005;SDS011;71529;47.484;19.064;2023-07-29T03:00:23;7.13;;;3.20;;
82005;SDS011;71529;47.484;19.064;2023-07-29T03:02:51;7.53;;;3.30;;
82005;SDS011;71529;47.484;19.064;2023-07-29T03:05:21;5.22;;;3.25;;
82005;SDS011;71529;47.484;19.064;2023-07-29T03:07:49;7.50;;;2.80;;
82005;SDS011;71529;47.484;19.064;2023-07-29T03:10:17;4.57;;;2.97;;
82005;SDS011;71529;47.484;19.064;2023-07-29T03:12:45;6.60;;;2.90;;
82005;SDS011;71529;47.484;19.064;2023-07-29T03:15:13;5.70;;;3.25;;
82005;SDS011;71529;47.484;19.064;2023-07-29T03:17:41;3.55;;;2.95;;
82005;SDS011;71529;47.484;19.064;2023-07-29T03:20:09;7.57;;;3.00;;
82005;SDS011;71529;47.484;19.064;2023-07-29T03:22:38;6.47;;;3.15;;
82005;SDS011;71529;47.484;19.064;2023-07-29T03:25:07;5.30;;;3.20;;
82005;SDS011;71529;47.484;19.064;2023-07-29T03:27:35;7.35;;;4.93;;
82005;SDS011;71529;47.484;19.064;2023-07-29T03:30:03;8.80;;;4.63;;
82005;SDS011;71529;47.484;19.064;2023-07-29T03:32:32;8.10;;;5.25;;
82005;SDS011;71529;47.484;19.064;2023-07-29T03:35:00;5.95;;;5.10;;
82005;SDS011;71529;47.484;19.064;2023-07-29T03:37:28;6.82;;;5.90;;
82005;SDS011;71529;47.484;19.064;2023-07-29T03:39:58;6.07;;;4.32;;
82005;SDS011;71529;47.484;19.064;2023-07-29T03:42:31;6.78;;;4.50;;
82005;SDS011;71529;47.484;19.064;2023-07-29T03:44:59;6.22;;;4.95;;
82005;SDS011;71529;47.484;19.064;2023-07-29T03:47:27;5.25;;;4.38;;
82005;SDS011;71529;47.484;19.064;2023-07-29T03:49:55;7.25;;;4.30;;
82005;SDS011;71529;47.484;19.064;2023-07-29T03:52:23;4.53;;;3.33;;
82005;SDS011;71529;47.484;19.064;2023-07-29T03:54:51;7.80;;;3.60;;
82005;SDS011;71529;47.484;19.064;2023-07-29T03:57:21;5.10;;;3.05;;
82005;SDS011;71529;47.484;19.064;2023-07-29T03:59:49;6.28;;;3.88;;
82005;SDS011;71529;47.484;19.064;2023-07-29T04:02:17;5.85;;;3.63;;
82005;SDS011;71529;47.484;19.064;2023-07-29T04:04:45;4.93;;;3.53;;
82005;SDS011;71529;47.484;19.064;2023-07-29T04:07:14;6.03;;;3.33;;
82005;SDS011;71529;47.484;19.064;2023-07-29T04:09:42;5.25;;;3.63;;
82005;SDS011;71529;47.484;19.064;2023-07-29T04:12:10;4.88;;;3.00;;
82005;SDS011;71529;47.484;19.064;2023-07-29T04:14:40;4.00;;;3.08;;
82005;SDS011;71529;47.484;19.064;2023-07-29T04:17:08;6.30;;;3.10;;
82005;SDS011;71529;47.484;19.064;2023-07-29T04:19:36;4.70;;;3.00;;
82005;SDS011;71529;47.484;19.064;2023-07-29T04:22:04;5.25;;;3.08;;
82005;SDS011;71529;47.484;19.064;2023-07-29T04:24:32;4.50;;;3.22;;
82005;SDS011;71529;47.484;19.064;2023-07-29T04:27:00;5.90;;;2.70;;
82005;SDS011;71529;47.484;19.064;2023-07-29T04:29:29;4.82;;;2.90;;
82005;SDS011;71529;47.484;19.064;2023-07-29T04:31:58;5.30;;;2.90;;
82005;SDS011;71529;47.484;19.064;2023-07-29T04:34:28;3.97;;;3.20;;
82005;SDS011;71529;47.484;19.064;2023-07-29T04:36:56;3.65;;;3.05;;
82005;SDS011;71529;47.484;19.064;2023-07-29T04:39:24;5.78;;;3.20;;
82005;SDS011;71529;47.484;19.064;2023-07-29T04:41:52;9.10;;;3.78;;
82005;SDS011;71529;47.484;19.064;2023-07-29T04:44:20;7.90;;;3.42;;
82005;SDS011;71529;47.484;19.064;2023-07-29T04:46:48;5.75;;;3.75;;
82005;SDS011;71529;47.484;19.064;2023-07-29T04:49:17;5.65;;;3.67;;
82005;SDS011;71529;47.484;19.064;2023-07-29T04:51:45;6.82;;;4.22;;
82005;SDS011;71529;47.484;19.064;2023-07-29T04:54:13;6.93;;;4.25;;
82005;SDS011;71529;47.484;19.064;2023-07-29T04:56:41;6.72;;;4.20;;
82005;SDS011;71529;47.484;19.064;2023-07-29T04:59:09;7.82;;;5.35;;
82005;SDS011;71529;47.484;19.064;2023-07-29T05:01:39;8.73;;;4.63;;
82005;SDS011;71529;47.484;19.064;2023-07-29T05:06:45;6.63;;;4.40;;
82005;SDS011;71529;47.484;19.064;2023-07-29T05:09:14;7.18;;;4.10;;
82005;SDS011;71529;47.484;19.064;2023-07-29T05:11:43;4.93;;;3.88;;
82005;SDS011;71529;47.484;19.064;2023-07-29T05:14:13;5.72;;;4.20;;
82005;SDS011;71529;47.484;19.064;2023-07-29T05:16:41;11.38;;;3.95;;
82005;SDS011;71529;47.484;19.064;2023-07-29T05:19:10;8.63;;;3.90;;
82005;SDS011;71529;47.484;19.064;2023-07-29T05:21:38;13.88;;;4.80;;
82005;SDS011;71529;47.484;19.064;2023-07-29T05:24:08;9.10;;;4.97;;
82005;SDS011;71529;47.484;19.064;2023-07-29T05:26:37;9.32;;;5.65;;
82005;SDS011;71529;47.484;19.064;2023-07-29T05:29:05;6.00;;;4.20;;
82005;SDS011;71529;47.484;19.064;2023-07-29T05:31:33;9.45;;;4.45;;
82005;SDS011;71529;47.484;19.064;2023-07-29T05:34:01;6.93;;;4.13;;
82005;SDS011;71529;47.484;19.064;2023-07-29T05:36:30;7.75;;;4.20;;
82005;SDS011;71529;47.484;19.064;2023-07-29T05:38:58;5.82;;;4.10;;
82005;SDS011;71529;47.484;19.064;2023-07-29T05:41:27;7.60;;;4.40;;
82005;SDS011;71529;47.484;19.064;2023-07-29T05:43:55;5.57;;;4.25;;
82005;SDS011;71529;47.484;19.064;2023-07-29T05:46:23;5.55;;;3.58;;
82005;SDS011;71529;47.484;19.064;2023-07-29T05:48:51;6.78;;;3.88;;
82005;SDS011;71529;47.484;19.064;2023-07-29T05:51:20;7.30;;;3.75;;
82005;SDS011;71529;47.484;19.064;2023-07-29T05:53:48;6.03;;;4.82;;
82005;SDS011;71529;47.484;19.064;2023-07-29T05:56:16;6.68;;;3.80;;
82005;SDS011;71529;47.484;19.064;2023-07-29T05:58:45;6.32;;;3.75;;
82005;SDS011;71529;47.484;19.064;2023-07-29T06:01:13;4.85;;;3.28;;
82005;SDS011;71529;47.484;19.064;2023-07-29T06:03:41;5.13;;;3.35;;
82005;SDS011;71529;47.484;19.064;2023-07-29T06:06:09;4.60;;;3.20;;
82005;SDS011;71529;47.484;19.064;2023-07-29T06:08:37;5.63;;;3.38;;
82005;SDS011;71529;47.484;19.064;2023-07-29T06:11:05;4.47;;;3.28;;
82005;SDS011;71529;47.484;19.064;2023-07-29T06:13:33;5.10;;;3.00;;
82005;SDS011;71529;47.484;19.064;2023-07-29T06:16:03;5.00;;;3.15;;
82005;SDS011;71529;47.484;19.064;2023-07-29T06:18:31;7.55;;;4.78;;
82005;SDS011;71529;47.484;19.064;2023-07-29T06:20:59;8.25;;;4.63;;
82005;SDS011;71529;47.484;19.064;2023-07-29T06:23:27;6.18;;;4.93;;
82005;SDS011;71529;47.484;19.064;2023-07-29T06:25:55;6.70;;;4.45;;
82005;SDS011;71529;47.484;19.064;2023-07-29T06:28:23;13.18;;;4.38;;
82005;SDS011;71529;47.484;19.064;2023-07-29T06:30:51;6.93;;;3.80;;
82005;SDS011;71529;47.484;19.064;2023-07-29T06:33:20;6.32;;;3.85;;
82005;SDS011;71529;47.484;19.064;2023-07-29T06:35:48;4.93;;;3.50;;
82005;SDS011;71529;47.484;19.064;2023-07-29T06:38:16;4.60;;;3.35;;
82005;SDS011;71529;47.484;19.064;2023-07-29T06:40:48;3.40;;;3.10;;
82005;SDS011;71529;47.484;19.064;2023-07-29T06:43:16;5.30;;;3.03;;
82005;SDS011;71529;47.484;19.064;2023-07-29T06:45:45;5.18;;;3.20;;
82005;SDS011;71529;47.484;19.064;2023-07-29T06:48:13;4.15;;;3.22;;
82005;SDS011;71529;47.484;19.064;2023-07-29T06:50:42;5.97;;;3.22;;
82005;SDS011;71529;47.484;19.064;2023-07-29T06:53:10;4.90;;;3.33;;
82005;SDS011;71529;47.484;19.064;2023-07-29T06:55:38;4.07;;;3.53;;
82005;SDS011;71529;47.484;19.064;2023-07-29T06:58:06;5.30;;;3.80;;
82005;SDS011;71529;47.484;19.064;2023-07-29T07:00:34;5.03;;;3.65;;
82005;SDS011;71529;47.484;19.064;2023-07-29T07:03:02;6.38;;;4.43;;
82005;SDS011;71529;47.484;19.064;2023-07-29T07:05:31;5.53;;;3.55;;
82005;SDS011;71529;47.484;19.064;2023-07-29T07:08:00;5.45;;;3.90;;
82005;SDS011;71529;47.484;19.064;2023-07-29T07:10:28;5.07;;;4.05;;
82005;SDS011;71529;47.484;19.064;2023-07-29T07:12:56;6.15;;;4.32;;
82005;SDS011;71529;47.484;19.064;2023-07-29T07:15:24;6.53;;;4.70;;
82005;SDS011;71529;47.484;19.064;2023-07-29T07:17:52;6.07;;;4.28;;
82005;SDS011;71529;47.484;19.064;2023-07-29T07:20:21;6.10;;;4.97;;
82005;SDS011;71529;47.484;19.064;2023-07-29T07:22:48;11.18;;;7.55;;
82005;SDS011;71529;47.484;19.064;2023-07-29T07:25:18;11.30;;;6.10;;
82005;SDS011;71529;47.484;19.064;2023-07-29T07:27:46;10.23;;;6.22;;
82005;SDS011;71529;47.484;19.064;2023-07-29T07:30:15;7.70;;;5.90;;
82005;SDS011;71529;47.484;19.064;2023-07-29T07:32:43;8.52;;;6.00;;
82005;SDS011;71529;47.484;19.064;2023-07-29T07:35:11;8.98;;;6.32;;
82005;SDS011;71529;47.484;19.064;2023-07-29T07:37:40;7.45;;;6.22;;
82005;SDS011;71529;47.484;19.064;2023-07-29T07:40:08;7.20;;;5.72;;
82005;SDS011;71529;47.484;19.064;2023-07-29T07:42:38;8.63;;;5.18;;
82005;SDS011;71529;47.484;19.064;2023-07-29T07:45:06;6.47;;;5.25;;
82005;SDS011;71529;47.484;19.064;2023-07-29T07:47:34;6.25;;;5.03;;
82005;SDS011;71529;47.484;19.064;2023-07-29T07:50:02;8.35;;;5.35;;
82005;SDS011;71529;47.484;19.064;2023-07-29T07:52:31;8.40;;;5.60;;
82005;SDS011;71529;47.484;19.064;2023-07-29T07:54:59;10.00;;;5.35;;
82005;SDS011;71529;47.484;19.064;2023-07-29T07:57:27;9.57;;;5.88;;
82005;SDS011;71529;47.484;19.064;2023-07-29T07:59:56;6.43;;;5.43;;
82005;SDS011;71529;47.484;19.064;2023-07-29T08:02:24;9.98;;;6.00;;
82005;SDS011;71529;47.484;19.064;2023-07-29T08:04:52;10.63;;;6.13;;
82005;SDS011;71529;47.484;19.064;2023-07-29T08:07:21;18.77;;;6.45;;
82005;SDS011;71529;47.484;19.064;2023-07-29T08:09:49;9.95;;;6.90;;
82005;SDS011;71529;47.484;19.064;2023-07-29T08:12:17;8.27;;;7.40;;
82005;SDS011;71529;47.484;19.064;2023-07-29T08:14:46;13.90;;;7.20;;
82005;SDS011;71529;47.484;19.064;2023-07-29T08:17:15;15.05;;;6.90;;
82005;SDS011;71529;47.484;19.064;2023-07-29T08:19:43;14.18;;;7.57;;
82005;SDS011;71529;47.484;19.064;2023-07-29T08:22:11;12.93;;;9.38;;
82005;SDS011;71529;47.484;19.064;2023-07-29T08:24:39;12.15;;;7.07;;
82005;SDS011;71529;47.484;19.064;2023-07-29T08:27:07;11.15;;;7.80;;
82005;SDS011;71529;47.484;19.064;2023-07-29T08:29:35;11.63;;;8.15;;
82005;SDS011;71529;47.484;19.064;2023-07-29T08:32:03;14.90;;;7.55;;
82005;SDS011;71529;47.484;19.064;2023-07-29T08:34:33;13.25;;;7.13;;
82005;SDS011;71529;47.484;19.064;2023-07-29T08:37:01;9.32;;;6.30;;
82005;SDS011;71529;47.484;19.064;2023-07-29T08:39:29;11.07;;;6.55;;
82005;SDS011;71529;47.484;19.064;2023-07-29T08:41:59;8.35;;;6.45;;
82005;SDS011;71529;47.484;19.064;2023-07-29T08:44:35;6.57;;;5.88;;
82005;SDS011;71529;47.484;19.064;2023-07-29T08:47:06;11.18;;;6.10;;
82005;SDS011;71529;47.484;19.064;2023-07-29T08:49:36;10.25;;;6.22;;
82005;SDS011;71529;47.484;19.064;2023-07-29T08:52:05;9.35;;;6.32;;
82005;SDS011;71529;47.484;19.064;2023-07-29T08:54:34;9.35;;;6.28;;
82005;SDS011;71529;47.484;19.064;2023-07-29T08:57:03;16.70;;;10.25;;
82005;SDS011;71529;47.484;19.064;2023-07-29T08:59:31;12.00;;;7.95;;
82005;SDS011;71529;47.484;19.064;2023-07-29T09:02:00;14.93;;;8.82;;
82005;SDS011;71529;47.484;19.064;2023-07-29T09:04:29;14.80;;;8.68;;
82005;SDS011;71529;47.484;19.064;2023-07-29T09:06:58;14.43;;;8.68;;
82005;SDS011;71529;47.484;19.064;2023-07-29T09:09:27;15.23;;;9.35;;
82005;SDS011;71529;47.484;19.064;2023-07-29T09:11:55;13.35;;;7.30;;
82005;SDS011;71529;47.484;19.064;2023-07-29T09:14:23;8.25;;;6.07;;
82005;SDS011;71529;47.484;19.064;2023-07-29T09:16:52;9.05;;;5.90;;
82005;SDS011;71529;47.484;19.064;2023-07-29T09:19:21;10.20;;;5.82;;
82005;SDS011;71529;47.484;19.064;2023-07-29T09:21:52;16.20;;;6.45;;
82005;SDS011;71529;47.484;19.064;2023-07-29T09:24:21;22.98;;;7.57;;
82005;SDS011;71529;47.484;19.064;2023-07-29T09:26:50;71.13;;;12.40;;
82005;SDS011;71529;47.484;19.064;2023-07-29T09:29:23;29.08;;;6.47;;
82005;SDS011;71529;47.484;19.064;2023-07-29T09:32:01;46.35;;;10.00;;
82005;SDS011;71529;47.484;19.064;2023-07-29T09:34:46;32.80;;;8.40;;
82005;SDS011;71529;47.484;19.064;2023-07-29T09:37:17;57.60;;;9.77;;
82005;SDS011;71529;47.484;19.064;2023-07-29T09:39:49;33.05;;;8.23;;
82005;SDS011;71529;47.484;19.064;2023-07-29T09:42:18;37.65;;;8.32;;
82005;SDS011;71529;47.484;19.064;2023-07-29T09:44:48;37.80;;;8.00;;
82005;SDS011;71529;47.484;19.064;2023-07-29T09:47:18;32.78;;;8.05;;
82005;SDS011;71529;47.484;19.064;2023-07-29T09:49:47;36.92;;;7.95;;
82005;SDS011;71529;47.484;19.064;2023-07-29T09:52:16;14.77;;;5.53;;
82005;SDS011;71529;47.484;19.064;2023-07-29T09:54:44;28.38;;;5.60;;
82005;SDS011;71529;47.484;19.064;2023-07-29T09:57:14;24.90;;;6.28;;
82005;SDS011;71529;47.484;19.064;2023-07-29T09:59:52;9.40;;;4.90;;
82005;SDS011;71529;47.484;19.064;2023-07-29T10:02:22;26.58;;;6.07;;
82005;SDS011;71529;47.484;19.064;2023-07-29T10:04:52;16.33;;;5.35;;
82005;SDS011;71529;47.484;19.064;2023-07-29T10:07:20;15.65;;;4.80;;
82005;SDS011;71529;47.484;19.064;2023-07-29T10:09:48;21.15;;;5.72;;
82005;SDS011;71529;47.484;19.064;2023-07-29T10:12:21;23.52;;;5.95;;
82005;SDS011;71529;47.484;19.064;2023-07-29T10:14:50;20.17;;;6.15;;
82005;SDS011;71529;47.484;19.064;2023-07-29T10:17:18;10.27;;;5.25;;
82005;SDS011;71529;47.484;19.064;2023-07-29T10:19:48;13.25;;;5.97;;
82005;SDS011;71529;47.484;19.064;2023-07-29T10:22:17;12.45;;;5.43;;
82005;SDS011;71529;47.484;19.064;2023-07-29T10:24:47;12.15;;;6.13;;
82005;SDS011;71529;47.484;19.064;2023-07-29T10:27:17;8.90;;;5.80;;
82005;SDS011;71529;47.484;19.064;2023-07-29T10:29:48;8.52;;;5.18;;
82005;SDS011;71529;47.484;19.064;2023-07-29T10:32:17;11.70;;;5.03;;
82005;SDS011;71529;47.484;19.064;2023-07-29T10:34:45;8.20;;;4.60;;
82005;SDS011;71529;47.484;19.064;2023-07-29T10:37:13;14.02;;;8.27;;
82005;SDS011;71529;47.484;19.064;2023-07-29T10:39:51;7.65;;;5.85;;
82005;SDS011;71529;47.484;19.064;2023-07-29T10:42:20;4.15;;;3.30;;
82005;SDS011;71529;47.484;19.064;2023-07-29T10:44:52;7.22;;;3.92;;
82005;SDS011;71529;47.484;19.064;2023-07-29T10:47:21;6.38;;;4.40;;
82005;SDS011;71529;47.484;19.064;2023-07-29T10:49:51;14.23;;;5.05;;
82005;SDS011;71529;47.484;19.064;2023-07-29T10:52:28;8.02;;;4.50;;
82005;SDS011;71529;47.484;19.064;2023-07-29T10:57:51;8.93;;;4.57;;
82005;SDS011;71529;47.484;19.064;2023-07-29T11:00:21;8.95;;;4.57;;
82005;SDS011;71529;47.484;19.064;2023-07-29T11:02:56;5.40;;;4.07;;
82005;SDS011;71529;47.484;19.064;2023-07-29T11:05:41;6.78;;;4.10;;
82005;SDS011;71529;47.484;19.064;2023-07-29T11:10:58;11.63;;;8.30;;
82005;SDS011;71529;47.484;19.064;2023-07-29T11:13:26;9.13;;;6.50;;
82005;SDS011;71529;47.484;19.064;2023-07-29T11:15:56;14.40;;;6.85;;
82005;SDS011;71529;47.484;19.064;2023-07-29T11:18:26;9.85;;;7.40;;
82005;SDS011;71529;47.484;19.064;2023-07-29T11:20:56;9.63;;;7.43;;
82005;SDS011;71529;47.484;19.064;2023-07-29T11:23:29;12.02;;;7.97;;
82005;SDS011;71529;47.484;19.064;2023-07-29T11:25:58;9.32;;;6.43;;
82005;SDS011;71529;47.484;19.064;2023-07-29T11:28:26;8.63;;;6.45;;
82005;SDS011;71529;47.484;19.064;2023-07-29T11:30:54;7.90;;;5.28;;
82005;SDS011;71529;47.484;19.064;2023-07-29T11:33:25;9.13;;;6.30;;
82005;SDS011;71529;47.484;19.064;2023-07-29T11:35:55;8.38;;;6.30;;
82005;SDS011;71529;47.484;19.064;2023-07-29T11:38:23;11.52;;;5.57;;
82005;SDS011;71529;47.484;19.064;2023-07-29T11:40:55;8.20;;;6.13;;
82005;SDS011;71529;47.484;19.064;2023-07-29T11:45:53;13.93;;;10.50;;
82005;SDS011;71529;47.484;19.064;2023-07-29T11:48:31;11.82;;;8.32;;
82005;SDS011;71529;47.484;19.064;2023-07-29T11:51:00;14.05;;;10.93;;
82005;SDS011;71529;47.484;19.064;2023-07-29T11:53:30;13.80;;;8.13;;
82005;SDS011;71529;47.484;19.064;2023-07-29T11:55:58;17.67;;;8.68;;
82005;SDS011;71529;47.484;19.064;2023-07-29T11:58:26;10.98;;;8.68;;
82005;SDS011;71529;47.484;19.064;2023-07-29T12:00:56;13.93;;;8.60;;
82005;SDS011;71529;47.484;19.064;2023-07-29T12:03:24;10.32;;;7.35;;
82005;SDS011;71529;47.484;19.064;2023-07-29T12:05:55;18.65;;;8.13;;
82005;SDS011;71529;47.484;19.064;2023-07-29T12:08:23;10.48;;;6.85;;
82005;SDS011;71529;47.484;19.064;2023-07-29T12:10:51;12.50;;;8.55;;
82005;SDS011;71529;47.484;19.064;2023-07-29T12:13:23;19.05;;;11.45;;
82005;SDS011;71529;47.484;19.064;2023-07-29T12:15:51;30.65;;;22.60;;
82005;SDS011;71529;47.484;19.064;2023-07-29T12:18:23;39.58;;;28.20;;
82005;SDS011;71529;47.484;19.064;2023-07-29T12:20:59;31.20;;;22.15;;
82005;SDS011;71529;47.484;19.064;2023-07-29T12:23:27;28.67;;;22.52;;
82005;SDS011;71529;47.484;19.064;2023-07-29T12:25:57;26.42;;;21.75;;
82005;SDS011;71529;47.484;19.064;2023-07-29T12:28:26;31.83;;;18.63;;
82005;SDS011;71529;47.484;19.064;2023-07-29T12:30:54;25.40;;;18.42;;
82005;SDS011;71529;47.484;19.064;2023-07-29T12:33:30;19.63;;;15.70;;
82005;SDS011;71529;47.484;19.064;2023-07-29T12:35:59;16.90;;;13.10;;
82005;SDS011;71529;47.484;19.064;2023-07-29T12:38:28;14.02;;;9.75;;
82005;SDS011;71529;47.484;19.064;2023-07-29T12:40:56;11.02;;;9.15;;
82005;SDS011;71529;47.484;19.064;2023-07-29T12:43:25;12.27;;;8.18;;
82005;SDS011;71529;47.484;19.064;2023-07-29T12:45:53;12.68;;;8.95;;
82005;SDS011;71529;47.484;19.064;2023-07-29T12:48:21;11.60;;;7.47;;
82005;SDS011;71529;47.484;19.064;2023-07-29T12:50:49;11.90;;;6.63;;
82005;SDS011;71529;47.484;19.064;2023-07-29T12:53:19;8.45;;;6.47;;
82005;SDS011;71529;47.484;19.064;2023-07-29T12:55:47;9.95;;;7.68;;
82005;SDS011;71529;47.484;19.064;2023-07-29T12:58:15;10.20;;;7.95;;
82005;SDS011;71529;47.484;19.064;2023-07-29T13:00:43;8.18;;;6.10;;
82005;SDS011;71529;47.484;19.064;2023-07-29T13:03:11;7.78;;;5.60;;
82005;SDS011;71529;47.484;19.064;2023-07-29T13:05:40;9.05;;;5.55;;
82005;SDS011;71529;47.484;19.064;2023-07-29T13:08:08;13.60;;;5.32;;
82005;SDS011;71529;47.484;19.064;2023-07-29T13:10:38;6.85;;;4.93;;
82005;SDS011;71529;47.484;19.064;2023-07-29T13:13:06;10.02;;;4.60;;
82005;SDS011;71529;47.484;19.064;2023-07-29T13:15:34;11.25;;;5.55;;
82005;SDS011;71529;47.484;19.064;2023-07-29T13:18:02;10.05;;;5.70;;
82005;SDS011;71529;47.484;19.064;2023-07-29T13:20:30;12.30;;;9.20;;
82005;SDS011;71529;47.484;19.064;2023-07-29T13:23:00;34.58;;;26.35;;
82005;SDS011;71529;47.484;19.064;2023-07-29T13:25:28;35.80;;;26.65;;
82005;SDS011;71529;47.484;19.064;2023-07-29T13:27:57;25.15;;;21.55;;
82005;SDS011;71529;47.484;19.064;2023-07-29T13:30:25;23.25;;;18.50;;
82005;SDS011;71529;47.484;19.064;2023-07-29T13:32:54;26.10;;;17.23;;
82005;SDS011;71529;47.484;19.064;2023-07-29T13:35:22;22.95;;;16.42;;
82005;SDS011;71529;47.484;19.064;2023-07-29T13:37:50;19.88;;;16.30;;
82005;SDS011;71529;47.484;19.064;2023-07-29T13:40:18;25.23;;;16.15;;
82005;SDS011;71529;47.484;19.064;2023-07-29T13:42:46;18.38;;;14.10;;
82005;SDS011;71529;47.484;19.064;2023-07-29T13:45:15;24.73;;;13.10;;
82005;SDS011;71529;47.484;19.064;2023-07-29T13:47:43;14.05;;;12.00;;
82005;SDS011;71529;47.484;19.064;2023-07-29T13:50:12;14.23;;;10.43;;
82005;SDS011;71529;47.484;19.064;2023-07-29T13:52:40;21.20;;;16.08;;
82005;SDS011;71529;47.484;19.064;2023-07-29T13:55:08;16.00;;;12.15;;
82005;SDS011;71529;47.484;19.064;2023-07-29T13:57:36;18.92;;;15.18;;
82005;SDS011;71529;47.484;19.064;2023-07-29T14:00:05;19.98;;;15.15;;
82005;SDS011;71529;47.484;19.064;2023-07-29T14:02:36;19.05;;;15.55;;
82005;SDS011;71529;47.484;19.064;2023-07-29T14:05:04;22.90;;;16.60;;
82005;SDS011;71529;47.484;19.064;2023-07-29T14:07:33;20.90;;;15.82;;
82005;SDS011;71529;47.484;19.064;2023-07-29T14:10:01;21.67;;;15.80;;
82005;SDS011;71529;47.484;19.064;2023-07-29T14:12:29;17.92;;;13.30;;
82005;SDS011;71529;47.484;19.064;2023-07-29T14:14:57;18.65;;;14.05;;
82005;SDS011;71529;47.484;19.064;2023-07-29T14:17:25;18.50;;;14.25;;
82005;SDS011;71529;47.484;19.064;2023-07-29T14:19:55;20.17;;;13.00;;
82005;SDS011;71529;47.484;19.064;2023-07-29T14:22:23;24.15;;;17.80;;
82005;SDS011;71529;47.484;19.064;2023-07-29T14:24:51;24.92;;;19.73;;
82005;SDS011;71529;47.484;19.064;2023-07-29T14:27:19;23.77;;;19.52;;
82005;SDS011;71529;47.484;19.064;2023-07-29T14:29:47;31.08;;;18.05;;
82005;SDS011;71529;47.484;19.064;2023-07-29T14:32:15;23.10;;;16.95;;
82005;SDS011;71529;47.484;19.064;2023-07-29T14:34:45;31.80;;;18.27;;
82005;SDS011;71529;47.484;19.064;2023-07-29T14:37:15;36.80;;;17.42;;
82005;SDS011;71529;47.484;19.064;2023-07-29T14:39:43;31.38;;;16.17;;
82005;SDS011;71529;47.484;19.064;2023-07-29T14:42:11;28.63;;;15.60;;
82005;SDS011;71529;47.484;19.064;2023-07-29T14:44:41;26.77;;;14.20;;
82005;SDS011;71529;47.484;19.064;2023-07-29T14:47:09;26.17;;;15.95;;
82005;SDS011;71529;47.484;19.064;2023-07-29T14:49:37;25.35;;;16.20;;
82005;SDS011;71529;47.484;19.064;2023-07-29T14:52:05;29.15;;;14.18;;